createdAt,value
2022-08-29T00:01:15.069Z,56.06
2022-08-29T00:03:43.228Z,56.13
2022-08-29T00:06:11.789Z,55.88
2022-08-29T00:08:39.701Z,56.19
2022-08-29T00:11:08.135Z,56.36
2022-08-29T00:13:36.655Z,56.60
2022-08-29T00:16:07.021Z,56.26
2022-08-29T00:18:35.921Z,56.54
2022-08-29T00:21:04.884Z,56.61
2022-08-29T00:23:32.987Z,56.63
2022-08-29T00:26:00.918Z,56.82
2022-08-29T00:28:28.826Z,56.90
2022-08-29T00:30:57.184Z,57.41
2022-08-29T00:33:26.482Z,57.22
2022-08-29T00:35:54.391Z,57.09
2022-08-29T00:38:27.710Z,57.12
2022-08-29T00:40:58.209Z,57.53
2022-08-29T00:43:28.519Z,57.14
2022-08-29T00:46:04.520Z,57.80
2022-08-29T00:48:35.752Z,58.04
2022-08-29T00:51:07.867Z,57.52
2022-08-29T00:53:39.958Z,57.69
2022-08-29T00:56:09.880Z,57.92
2022-08-29T00:58:43.101Z,57.71
2022-08-29T01:01:14.270Z,57.50
2022-08-29T01:03:44.098Z,58.08
2022-08-29T01:06:14.939Z,57.67
2022-08-29T01:08:44.065Z,58.13
2022-08-29T01:11:40.963Z,58.10
2022-08-29T01:14:10.540Z,58.84
2022-08-29T01:16:39.871Z,58.26
2022-08-29T01:19:18.485Z,58.44
2022-08-29T01:21:56.677Z,58.75
2022-08-29T01:24:36.758Z,58.85
2022-08-29T01:27:05.061Z,58.66
2022-08-29T01:29:33.083Z,58.63
2022-08-29T01:32:01.025Z,58.46
2022-08-29T01:34:30.602Z,58.51
2022-08-29T01:37:01.234Z,58.90
2022-08-29T01:39:32.925Z,59.19
2022-08-29T01:42:03.915Z,59.28
2022-08-29T01:44:31.817Z,59.23
2022-08-29T01:47:03.266Z,59.71
2022-08-29T01:49:33.134Z,59.70
2022-08-29T01:52:01.950Z,59.65
2022-08-29T01:54:32.187Z,59.99
2022-08-29T01:57:00.747Z,59.74
2022-08-29T01:59:31.114Z,60.22
2022-08-29T02:02:03.792Z,60.07
2022-08-29T02:04:31.912Z,59.89
2022-08-29T02:07:00.364Z,60.19
2022-08-29T02:09:29.637Z,60.11
2022-08-29T02:11:59.487Z,60.47
2022-08-29T02:14:27.675Z,60.44
2022-08-29T02:16:55.777Z,60.80
2022-08-29T02:19:24.041Z,60.43
2022-08-29T02:21:52.532Z,61.61
2022-08-29T02:24:27.613Z,61.33
2022-08-29T02:26:57.377Z,61.74
2022-08-29T02:29:37.197Z,61.38
2022-08-29T02:32:07.162Z,61.06
2022-08-29T02:34:36.410Z,61.76
2022-08-29T02:37:04.791Z,61.69
2022-08-29T02:39:34.081Z,61.85
2022-08-29T02:42:02.536Z,61.88
2022-08-29T02:44:31.703Z,61.68
2022-08-29T02:46:59.815Z,61.97
2022-08-29T02:49:27.736Z,62.05
2022-08-29T02:51:56.131Z,61.85
2022-08-29T02:54:24.055Z,61.87
2022-08-29T02:56:52.351Z,62.20
2022-08-29T02:59:20.283Z,62.56
2022-08-29T03:01:49.541Z,62.26
2022-08-29T03:04:17.437Z,62.56
2022-08-29T03:06:46.906Z,62.60
2022-08-29T03:09:15.149Z,62.50
2022-08-29T03:11:43.024Z,62.64
2022-08-29T03:14:10.896Z,62.83
2022-08-29T03:16:39.024Z,62.48
2022-08-29T03:19:08.456Z,62.05
2022-08-29T03:21:36.309Z,62.49
2022-08-29T03:24:04.692Z,62.58
2022-08-29T03:26:32.582Z,63.19
2022-08-29T03:29:00.401Z,62.79
2022-08-29T03:31:28.333Z,62.52
2022-08-29T03:33:56.712Z,62.79
2022-08-29T03:36:27.038Z,62.86
2022-08-29T03:38:55.160Z,62.95
2022-08-29T03:41:23.953Z,62.72
2022-08-29T03:43:52.311Z,62.75
2022-08-29T03:46:20.520Z,62.96
2022-08-29T03:48:48.584Z,63.13
2022-08-29T03:51:16.670Z,63.10
2022-08-29T03:53:46.780Z,63.46
2022-08-29T03:56:18.710Z,62.78
2022-08-29T03:58:52.554Z,63.39
2022-08-29T04:01:22.907Z,63.37
2022-08-29T04:03:51.331Z,63.13
2022-08-29T04:06:19.836Z,63.68
2022-08-29T04:08:50.940Z,63.30
2022-08-29T04:11:20.623Z,63.72
2022-08-29T04:14:07.490Z,64.18
2022-08-29T04:16:55.976Z,63.55
2022-08-29T04:19:34.274Z,63.94
2022-08-29T04:22:14.099Z,64.12
2022-08-29T04:25:36.835Z,64.84
2022-08-29T04:28:12.675Z,63.61
2022-08-29T04:33:48.282Z,64.18
2022-08-29T04:36:20.167Z,64.54
2022-08-29T04:38:52.469Z,64.08
2022-08-29T04:41:38.782Z,64.21
2022-08-29T04:44:28.331Z,64.24
2022-08-29T04:46:59.309Z,64.24
2022-08-29T04:49:29.720Z,64.65
2022-08-29T04:52:13.980Z,65.05
2022-08-29T04:54:53.820Z,65.14
2022-08-29T04:57:27.898Z,64.74
2022-08-29T05:00:04.620Z,65.31
2022-08-29T05:02:50.543Z,65.67
2022-08-29T05:05:20.712Z,65.05
2022-08-29T05:07:49.938Z,65.27
2022-08-29T05:13:09.948Z,65.29
2022-08-29T05:15:43.498Z,65.58
2022-08-29T05:18:27.748Z,65.61
2022-08-29T05:20:58.594Z,65.70
2022-08-29T05:23:45.359Z,65.86
2022-08-29T05:26:29.407Z,66.05
2022-08-29T05:29:20.198Z,66.23
2022-08-29T05:35:22.190Z,66.15
2022-08-29T05:37:54.599Z,66.12
2022-08-29T05:43:11.484Z,66.16
2022-08-29T05:45:43.800Z,66.52
2022-08-29T05:48:18.261Z,67.07
2022-08-29T05:51:15.003Z,67.26
2022-08-29T05:56:47.937Z,67.36
2022-08-29T05:59:42.433Z,67.55
2022-08-29T06:02:28.080Z,67.84
2022-08-29T06:05:04.511Z,67.54
2022-08-29T06:08:13.118Z,67.18
2022-08-29T06:10:52.526Z,68.45
2022-08-29T06:13:32.592Z,67.42
2022-08-29T06:16:30.021Z,69.19
2022-08-29T06:19:43.258Z,67.74
2022-08-29T06:22:48.570Z,67.15
2022-08-29T06:25:40.105Z,67.08
2022-08-29T06:28:14.855Z,66.49
2022-08-29T06:31:03.324Z,66.94
2022-08-29T06:33:42.933Z,67.22
2022-08-29T06:36:17.669Z,67.38
2022-08-29T06:42:38.297Z,67.01
2022-08-29T06:45:07.929Z,66.92
2022-08-29T06:47:35.833Z,66.44
2022-08-29T06:50:04.065Z,66.89
2022-08-29T06:52:31.910Z,66.64
2022-08-29T06:54:59.808Z,66.49
2022-08-29T06:57:29.334Z,66.58
2022-08-29T06:59:58.658Z,66.31
2022-08-29T07:02:26.641Z,65.86
2022-08-29T07:04:54.587Z,64.65
2022-08-29T07:07:22.435Z,64.15
2022-08-29T07:09:50.390Z,63.91
2022-08-29T07:12:18.662Z,63.41
2022-08-29T07:14:46.879Z,62.45
2022-08-29T07:17:20.892Z,61.30
2022-08-29T07:19:54.815Z,61.01
2022-08-29T07:22:22.881Z,60.85
2022-08-29T07:24:50.745Z,60.26
2022-08-29T07:27:18.665Z,59.68
2022-08-29T07:29:50.458Z,59.46
2022-08-29T07:32:23.989Z,58.27
2022-08-29T07:34:56.111Z,58.54
2022-08-29T07:37:24.542Z,57.38
2022-08-29T07:39:52.430Z,56.95
2022-08-29T07:42:20.269Z,56.79
2022-08-29T07:44:48.233Z,55.92
2022-08-29T07:47:16.395Z,55.71
2022-08-29T07:49:45.840Z,55.33
2022-08-29T07:52:13.780Z,54.10
2022-08-29T07:54:41.680Z,53.35
2022-08-29T07:57:09.616Z,53.72
2022-08-29T07:59:37.611Z,52.93
2022-08-29T08:02:06.009Z,52.97
2022-08-29T08:04:33.991Z,52.98
2022-08-29T08:07:04.775Z,52.68
2022-08-29T08:09:41.550Z,53.26
2022-08-29T08:12:13.848Z,53.66
2022-08-29T08:14:41.845Z,52.34
2022-08-29T08:17:10.201Z,52.80
2022-08-29T08:19:38.659Z,52.53
2022-08-29T08:22:08.025Z,51.90
2022-08-29T08:24:35.872Z,51.93
2022-08-29T08:27:03.806Z,51.61
2022-08-29T08:29:31.710Z,50.66
2022-08-29T08:32:00.258Z,51.09
2022-08-29T08:34:29.415Z,50.43
2022-08-29T08:36:58.190Z,49.61
2022-08-29T08:39:27.554Z,50.20
2022-08-29T08:41:58.275Z,49.59
2022-08-29T08:44:49.534Z,48.01
2022-08-29T08:47:23.340Z,48.98
2022-08-29T08:49:54.762Z,49.38
2022-08-29T08:52:29.124Z,49.04
2022-08-29T08:55:03.033Z,48.15
2022-08-29T08:57:39.720Z,48.95
2022-08-29T09:00:10.805Z,49.45
2022-08-29T09:02:49.263Z,49.56
2022-08-29T09:05:35.044Z,49.63
2022-08-29T09:08:14.524Z,49.05
2022-08-29T09:10:50.185Z,50.05
2022-08-29T09:13:29.076Z,49.62
2022-08-29T09:16:00.906Z,49.23
2022-08-29T09:18:35.409Z,49.84
2022-08-29T09:21:29.913Z,49.31
2022-08-29T09:23:59.700Z,49.35
2022-08-29T09:26:29.133Z,49.68
2022-08-29T09:28:58.917Z,50.03
2022-08-29T09:31:31.704Z,49.26
2022-08-29T09:34:02.167Z,48.77
2022-08-29T09:36:38.379Z,49.06
2022-08-29T09:39:21.548Z,47.88
2022-08-29T09:41:53.226Z,48.34
2022-08-29T09:44:25.599Z,47.79
2022-08-29T09:47:12.495Z,46.93
2022-08-29T09:49:43.257Z,44.92
2022-08-29T09:52:15.907Z,44.55
2022-08-29T09:54:44.668Z,44.67
2022-08-29T09:57:23.296Z,43.62
2022-08-29T10:00:11.943Z,43.20
2022-08-29T10:02:47.512Z,44.07
2022-08-29T10:05:33.862Z,42.93
2022-08-29T10:08:03.089Z,43.36
2022-08-29T10:10:34.717Z,43.13
2022-08-29T10:13:09.242Z,43.05
2022-08-29T10:15:50.843Z,43.23
2022-08-29T10:18:28.624Z,42.50
2022-08-29T10:21:08.109Z,41.38
2022-08-29T10:23:43.790Z,41.05
2022-08-29T10:26:26.440Z,39.32
2022-08-29T10:29:04.272Z,40.34
2022-08-29T10:31:38.975Z,40.58
2022-08-29T10:34:22.148Z,41.12
2022-08-29T10:36:58.346Z,40.53
2022-08-29T10:39:37.816Z,40.86
2022-08-29T10:42:09.993Z,39.99
2022-08-29T10:44:56.057Z,40.90
2022-08-29T10:47:30.180Z,39.75
2022-08-29T10:50:43.213Z,39.70
2022-08-29T10:53:15.964Z,39.22
2022-08-29T10:55:50.923Z,38.54
2022-08-29T10:58:31.771Z,38.36
2022-08-29T11:01:09.357Z,39.18
2022-08-29T11:03:43.984Z,38.63
2022-08-29T11:06:15.184Z,38.39
2022-08-29T11:08:48.122Z,38.64
2022-08-29T11:11:19.096Z,38.43
2022-08-29T11:13:50.953Z,38.18
2022-08-29T11:16:26.577Z,36.92
2022-08-29T11:19:01.646Z,38.00
2022-08-29T11:21:36.514Z,38.40
2022-08-29T11:24:05.539Z,38.07
2022-08-29T11:26:45.121Z,38.25
2022-08-29T11:29:27.029Z,37.38
2022-08-29T11:32:06.454Z,38.06
2022-08-29T11:34:55.367Z,37.82
2022-08-29T11:37:42.831Z,37.89
2022-08-29T11:40:47.140Z,38.04
2022-08-29T11:43:15.667Z,37.49
2022-08-29T11:45:45.233Z,38.57
2022-08-29T11:48:32.173Z,36.89
2022-08-29T11:51:00.755Z,38.03
2022-08-29T11:53:35.083Z,37.19
2022-08-29T11:56:28.827Z,35.82
2022-08-29T11:58:59.617Z,37.45
2022-08-29T12:02:00.958Z,36.09
2022-08-29T12:04:57.957Z,36.07
2022-08-29T12:07:36.949Z,36.06
2022-08-29T12:10:08.693Z,36.47
2022-08-29T12:12:46.216Z,35.03
2022-08-29T12:15:43.520Z,35.76
2022-08-29T12:18:44.909Z,36.36
2022-08-29T12:21:47.145Z,36.70
2022-08-29T12:24:38.018Z,36.13
2022-08-29T12:27:05.855Z,36.30
2022-08-29T12:29:44.919Z,36.58
2022-08-29T12:32:40.103Z,33.92
2022-08-29T12:35:31.266Z,35.27
2022-08-29T12:38:16.013Z,35.96
2022-08-29T12:40:56.371Z,35.15
2022-08-29T12:43:36.346Z,33.61
2022-08-29T12:46:17.543Z,34.26
2022-08-29T12:48:57.921Z,34.10
2022-08-29T12:51:38.013Z,32.39
2022-08-29T12:54:09.077Z,33.75
2022-08-29T12:56:39.467Z,31.99
2022-08-29T12:59:07.587Z,32.42
2022-08-29T13:01:38.453Z,31.67
2022-08-29T13:04:14.690Z,32.44
2022-08-29T13:06:53.126Z,33.32
2022-08-29T13:09:28.485Z,31.94
2022-08-29T13:12:11.905Z,31.64
2022-08-29T13:14:49.793Z,31.03
2022-08-29T13:17:20.766Z,32.64
2022-08-29T13:20:25.903Z,32.75
2022-08-29T13:23:06.299Z,32.36
2022-08-29T13:25:37.435Z,32.10
2022-08-29T13:28:06.012Z,28.85
2022-08-29T13:30:34.148Z,31.24
2022-08-29T13:33:03.722Z,31.55
2022-08-29T13:35:33.397Z,30.98
2022-08-29T13:38:19.124Z,31.21
2022-08-29T13:40:50.676Z,31.66
2022-08-29T13:43:34.407Z,30.95
2022-08-29T13:46:15.385Z,32.09
2022-08-29T13:48:44.735Z,31.37
2022-08-29T13:51:13.449Z,30.85
2022-08-29T13:53:45.410Z,31.22
2022-08-29T13:56:24.906Z,30.59
2022-08-29T13:58:54.881Z,31.23
2022-08-29T14:02:07.524Z,30.28
2022-08-29T14:04:36.989Z,31.04
2022-08-29T14:07:00.036Z,29.72
2022-08-29T14:09:33.122Z,28.71
2022-08-29T14:12:02.944Z,30.09
2022-08-29T14:14:30.915Z,29.86
2022-08-29T14:16:59.161Z,30.23
2022-08-29T14:19:28.578Z,28.90
2022-08-29T14:21:59.139Z,28.29
2022-08-29T14:24:29.095Z,28.88
2022-08-29T14:27:01.110Z,28.65
2022-08-29T14:29:31.642Z,29.76
2022-08-29T14:32:03.187Z,28.69
2022-08-29T14:34:33.217Z,28.60
2022-08-29T14:37:01.372Z,29.22
2022-08-29T14:39:29.256Z,28.73
2022-08-29T14:41:57.187Z,28.14
2022-08-29T14:44:25.457Z,27.95
2022-08-29T14:46:54.729Z,28.54
2022-08-29T14:49:22.524Z,28.32
2022-08-29T14:51:50.503Z,28.16
2022-08-29T14:54:19.231Z,28.76
2022-08-29T14:56:49.494Z,28.61
2022-08-29T14:59:18.337Z,28.20
2022-08-29T15:01:51.336Z,28.48
2022-08-29T15:04:35.383Z,28.58
2022-08-29T15:07:05.756Z,27.94
2022-08-29T15:09:34.190Z,27.93
2022-08-29T15:12:02.164Z,28.74
2022-08-29T15:14:30.214Z,28.48
2022-08-29T15:16:58.112Z,27.70
2022-08-29T15:22:15.200Z,28.82
2022-08-29T15:24:44.123Z,28.63
2022-08-29T15:27:13.392Z,28.90
2022-08-29T15:29:41.664Z,29.31
2022-08-29T15:32:10.877Z,28.93
2022-08-29T15:34:40.788Z,29.13
2022-08-29T15:37:10.812Z,28.83
2022-08-29T15:39:39.149Z,28.82
2022-08-29T15:42:11.071Z,29.19
2022-08-29T15:44:39.418Z,29.24
2022-08-29T15:47:10.557Z,29.68
2022-08-29T15:49:40.587Z,29.29
2022-08-29T15:52:08.694Z,29.59
2022-08-29T15:54:36.743Z,29.69
2022-08-29T15:57:05.745Z,29.71
2022-08-29T15:59:56.990Z,29.65
2022-08-29T16:02:23.372Z,29.81
2022-08-29T16:04:56.787Z,30.10
2022-08-29T16:07:28.964Z,30.24
2022-08-29T16:09:57.807Z,29.83
2022-08-29T16:12:25.707Z,30.11
2022-08-29T16:15:01.977Z,30.67
2022-08-29T16:17:32.632Z,31.11
2022-08-29T16:20:02.663Z,31.26
2022-08-29T16:22:30.974Z,30.96
2022-08-29T16:24:59.378Z,32.02
2022-08-29T16:27:27.709Z,31.70
2022-08-29T16:29:57.327Z,31.72
2022-08-29T16:32:25.398Z,31.32
2022-08-29T16:34:53.356Z,31.96
2022-08-29T16:37:22.843Z,30.70
2022-08-29T16:39:50.854Z,31.19
2022-08-29T16:42:18.917Z,31.79
2022-08-29T16:44:47.059Z,31.34
2022-08-29T16:47:15.315Z,31.49
2022-08-29T16:49:43.229Z,31.75
2022-08-29T16:52:11.249Z,32.08
2022-08-29T16:54:40.584Z,32.12
2022-08-29T16:57:08.508Z,32.44
2022-08-29T16:59:37.109Z,32.85
2022-08-29T17:02:05.574Z,33.20
2022-08-29T17:04:33.736Z,33.53
2022-08-29T17:07:02.484Z,33.59
2022-08-29T17:09:29.736Z,33.75
2022-08-29T17:11:57.887Z,33.35
2022-08-29T17:14:29.098Z,33.48
2022-08-29T17:16:57.368Z,33.91
2022-08-29T17:19:25.761Z,33.76
2022-08-29T17:21:53.681Z,34.33
2022-08-29T17:24:22.238Z,34.65
2022-08-29T17:26:50.164Z,35.10
2022-08-29T17:29:19.442Z,35.26
2022-08-29T17:31:47.385Z,35.57
2022-08-29T17:34:16.227Z,35.62
2022-08-29T17:36:44.683Z,35.35
2022-08-29T17:39:13.271Z,35.78
2022-08-29T17:41:41.516Z,36.49
2022-08-29T17:44:11.104Z,36.13
2022-08-29T17:46:40.463Z,36.46
2022-08-29T17:49:10.422Z,37.01
2022-08-29T17:51:40.243Z,36.93
2022-08-29T17:54:12.263Z,37.15
2022-08-29T17:56:44.291Z,37.71
2022-08-29T17:59:12.774Z,37.95
2022-08-29T18:01:42.274Z,37.85
2022-08-29T18:04:10.390Z,37.99
2022-08-29T18:06:38.996Z,38.32
2022-08-29T18:09:08.386Z,38.39
2022-08-29T18:11:39.505Z,38.69
2022-08-29T18:14:10.826Z,38.82
2022-08-29T18:16:39.542Z,38.89
2022-08-29T18:19:09.134Z,39.17
2022-08-29T18:21:37.074Z,39.27
2022-08-29T18:24:06.169Z,39.32
2022-08-29T18:26:34.979Z,39.62
2022-08-29T18:29:02.851Z,40.01
2022-08-29T18:31:30.771Z,39.90
2022-08-29T18:34:01.036Z,39.95
2022-08-29T18:36:31.355Z,40.64
2022-08-29T18:38:59.413Z,40.49
2022-08-29T18:41:27.455Z,40.54
2022-08-29T18:43:55.391Z,40.91
2022-08-29T18:46:23.508Z,40.79
2022-08-29T18:48:51.804Z,41.05
2022-08-29T18:51:20.388Z,41.04
2022-08-29T18:53:50.694Z,41.42
2022-08-29T18:56:18.859Z,41.65
2022-08-29T18:58:46.804Z,41.58
2022-08-29T19:01:27.132Z,41.57
2022-08-29T19:03:57.424Z,41.58
2022-08-29T19:06:27.530Z,41.99
2022-08-29T19:08:57.949Z,41.98
2022-08-29T19:11:27.018Z,42.19
2022-08-29T19:13:55.090Z,42.42
2022-08-29T19:16:24.382Z,42.77
2022-08-29T19:18:52.926Z,43.14
2022-08-29T19:21:20.014Z,43.20
2022-08-29T19:23:52.568Z,43.49
2022-08-29T19:26:27.136Z,43.71
2022-08-29T19:28:58.179Z,43.91
2022-08-29T19:31:29.197Z,44.02
2022-08-29T19:33:57.538Z,44.29
2022-08-29T19:36:25.704Z,44.42
2022-08-29T19:38:53.786Z,44.71
2022-08-29T19:41:25.083Z,45.19
2022-08-29T19:43:53.279Z,45.13
2022-08-29T19:46:24.644Z,44.96
2022-08-29T19:48:52.720Z,45.60
2022-08-29T19:51:24.789Z,45.44
2022-08-29T19:53:53.455Z,45.51
2022-08-29T19:56:23.829Z,45.61
2022-08-29T19:58:54.637Z,45.71
2022-08-29T20:01:22.774Z,46.26
2022-08-29T20:03:50.686Z,45.73
2022-08-29T20:06:20.621Z,46.35
2022-08-29T20:08:48.552Z,46.50
2022-08-29T20:11:19.120Z,46.32
2022-08-29T20:13:51.886Z,46.41
2022-08-29T20:16:22.576Z,46.48
2022-08-29T20:18:51.913Z,47.02
2022-08-29T20:21:20.987Z,47.09
2022-08-29T20:23:57.105Z,47.33
2022-08-29T20:26:27.177Z,47.46
2022-08-29T20:28:58.331Z,47.60
2022-08-29T20:31:26.513Z,47.76
2022-08-29T20:33:54.714Z,47.97
2022-08-29T20:36:41.593Z,47.91
2022-08-29T20:39:11.558Z,48.52
2022-08-29T20:41:39.645Z,48.63
2022-08-29T20:44:10.954Z,49.35
2022-08-29T20:46:41.117Z,49.25
2022-08-29T20:49:09.654Z,49.14
2022-08-29T20:51:38.401Z,49.04
2022-08-29T20:54:07.282Z,49.32
2022-08-29T20:56:35.201Z,49.32
2022-08-29T20:59:03.129Z,49.90
2022-08-29T21:01:33.280Z,50.06
2022-08-29T21:04:21.026Z,49.61
2022-08-29T21:06:51.382Z,49.93
2022-08-29T21:09:19.280Z,49.59
2022-08-29T21:11:47.264Z,49.69
2022-08-29T21:14:15.209Z,49.96
2022-08-29T21:16:44.417Z,50.06
2022-08-29T21:19:12.932Z,50.23
2022-08-29T21:21:42.598Z,50.37
2022-08-29T21:24:11.356Z,50.40
2022-08-29T21:26:40.155Z,50.50
2022-08-29T21:29:09.067Z,50.48
2022-08-29T21:31:37.626Z,50.73
2022-08-29T21:34:10.349Z,51.17
2022-08-29T21:36:39.864Z,51.31
2022-08-29T21:39:09.900Z,51.58
2022-08-29T21:41:40.725Z,51.61
2022-08-29T21:44:10.687Z,51.84
2022-08-29T21:46:42.995Z,51.74
2022-08-29T21:49:14.102Z,52.23
2022-08-29T21:51:41.981Z,52.38
2022-08-29T21:54:13.344Z,52.60
2022-08-29T21:56:42.379Z,52.71
2022-08-29T21:59:11.723Z,52.81
2022-08-29T22:01:40.517Z,53.24
2022-08-29T22:04:10.141Z,53.23
2022-08-29T22:06:41.258Z,53.42
2022-08-29T22:09:10.682Z,53.65
2022-08-29T22:11:39.845Z,53.80
2022-08-29T22:14:08.682Z,53.94
2022-08-29T22:16:37.126Z,54.08
2022-08-29T22:19:07.639Z,54.36
2022-08-29T22:21:37.862Z,54.60
2022-08-29T22:24:07.908Z,54.46
2022-08-29T22:26:36.769Z,54.56
2022-08-29T22:29:05.565Z,54.70
2022-08-29T22:31:33.918Z,54.87
2022-08-29T22:34:03.882Z,55.01
2022-08-29T22:36:34.306Z,55.24
2022-08-29T22:39:02.360Z,55.46
2022-08-29T22:41:31.726Z,55.62
2022-08-29T22:46:49.325Z,56.12
2022-08-29T22:49:18.012Z,55.81
2022-08-29T22:51:46.601Z,56.01
2022-08-29T22:54:31.641Z,55.88
2022-08-29T22:57:04.434Z,56.17
2022-08-29T22:59:32.433Z,56.48
2022-08-29T23:02:01.938Z,56.79
2022-08-29T23:04:30.286Z,57.22
2022-08-29T23:06:58.427Z,56.92
2022-08-29T23:09:26.321Z,57.18
2022-08-29T23:11:54.477Z,57.49
2022-08-29T23:14:24.120Z,57.70
2022-08-29T23:16:55.834Z,57.99
2022-08-29T23:19:23.697Z,58.05
2022-08-29T23:21:51.816Z,58.44
2022-08-29T23:24:20.941Z,58.61
2022-08-29T23:26:49.248Z,58.56
2022-08-29T23:29:17.197Z,58.36
2022-08-29T23:31:46.518Z,58.63
2022-08-29T23:34:14.905Z,58.92
2022-08-29T23:36:42.894Z,59.04
2022-08-29T23:39:11.054Z,59.19
2022-08-29T23:41:38.944Z,59.48
2022-08-29T23:44:06.882Z,59.59
2022-08-29T23:46:34.827Z,59.66
2022-08-29T23:49:05.361Z,59.40
2022-08-29T23:51:33.658Z,59.32
2022-08-29T23:54:01.756Z,59.34
2022-08-29T23:56:29.729Z,59.23
2022-08-29T23:58:57.904Z,59.31
